createdAt,value
2019-04-23T00:00:07.637Z,17.65
2019-04-23T00:02:53.636Z,17.63
2019-04-23T00:11:24.030Z,17.58
2019-04-23T00:13:49.780Z,17.61
2019-04-23T00:16:21.504Z,17.61
2019-04-23T00:18:46.448Z,17.58
2019-04-23T00:21:42.510Z,17.56
2019-04-23T00:24:53.410Z,17.57
2019-04-23T00:27:13.163Z,17.53
2019-04-23T00:29:40.197Z,17.47
2019-04-23T00:32:13.812Z,17.47
2019-04-23T00:34:44.580Z,17.40
2019-04-23T00:37:34.609Z,17.35
2019-04-23T00:42:31.282Z,17.30
2019-04-23T00:44:57.214Z,17.33
2019-04-23T00:47:31.336Z,17.32
2019-04-23T00:50:07.725Z,17.25
2019-04-23T00:55:12.357Z,17.22
2019-04-23T00:57:38.924Z,17.19
2019-04-23T01:00:10.159Z,17.16
2019-04-23T01:02:38.638Z,17.05
2019-04-23T01:05:11.365Z,17.09
2019-04-23T01:07:40.321Z,17.07
2019-04-23T01:10:27.092Z,16.87
2019-04-23T01:13:03.780Z,16.83
2019-04-23T01:24:06.374Z,16.77
2019-04-23T01:27:35.810Z,16.69
2019-04-23T01:29:52.180Z,16.76
2019-04-23T01:32:22.264Z,16.69
2019-04-23T01:34:59.516Z,16.77
2019-04-23T01:37:28.631Z,16.80
2019-04-23T01:39:52.407Z,16.70
2019-04-23T01:42:28.970Z,16.78
2019-04-23T01:45:01.459Z,16.77
2019-04-23T01:47:24.440Z,16.75
2019-04-23T01:50:03.352Z,16.76
2019-04-23T01:52:36.222Z,16.72
2019-04-23T01:55:02.967Z,16.68
2019-04-23T01:57:30.710Z,16.66
2019-04-23T02:00:03.298Z,16.61
2019-04-23T02:02:40.872Z,16.51
2019-04-23T02:05:09.725Z,16.50
2019-04-23T02:07:44.392Z,16.48
2019-04-23T02:10:17.011Z,16.49
2019-04-23T02:12:42.279Z,16.51
2019-04-23T02:15:11.499Z,16.50
2019-04-23T02:17:47.509Z,16.52
2019-04-23T02:20:17.792Z,16.49
2019-04-23T02:23:14.923Z,16.51
2019-04-23T02:26:10.798Z,16.40
2019-04-23T02:28:49.356Z,16.35
2019-04-23T02:33:53.888Z,16.33
2019-04-23T02:38:52.422Z,16.32
2019-04-23T02:43:59.656Z,16.15
2019-04-23T02:48:59.870Z,16.21
2019-04-23T02:51:26.841Z,16.15
2019-04-23T02:54:10.861Z,16.10
2019-04-23T02:56:49.329Z,16.15
2019-04-23T02:59:05.628Z,16.06
2019-04-23T03:06:50.414Z,16.09
2019-04-23T03:09:23.667Z,16.03
2019-04-23T03:14:09.678Z,15.84
2019-04-23T03:25:10.321Z,15.93
2019-04-23T03:27:37.318Z,15.86
2019-04-23T03:30:17.014Z,15.80
2019-04-23T03:33:55.462Z,15.89
2019-04-23T03:35:10.207Z,15.89
2019-04-23T03:40:19.273Z,15.84
2019-04-23T03:50:23.719Z,15.69
2019-04-23T03:55:32.744Z,15.71
2019-04-23T03:57:43.426Z,15.72
2019-04-23T04:05:49.298Z,15.62
2019-04-23T04:08:07.470Z,15.43
2019-04-23T04:10:41.606Z,15.48
2019-04-23T04:12:56.874Z,15.39
2019-04-23T04:18:23.548Z,15.47
2019-04-23T04:23:22.180Z,15.48
2019-04-23T04:28:12.076Z,15.47
2019-04-23T04:34:01.094Z,15.28
2019-04-23T04:36:14.028Z,15.24
2019-04-23T04:41:05.955Z,15.29
2019-04-23T04:43:41.515Z,15.34
2019-04-23T04:46:32.535Z,15.32
2019-04-23T04:48:43.728Z,15.45
2019-04-23T04:56:30.264Z,15.53
2019-04-23T05:03:35.840Z,15.55
2019-04-23T05:08:52.904Z,15.66
2019-04-23T05:11:30.698Z,15.64
2019-04-23T05:14:00.077Z,15.71
2019-04-23T05:16:21.483Z,15.70
2019-04-23T05:19:15.399Z,15.72
2019-04-23T05:26:48.084Z,15.76
2019-04-23T05:29:14.533Z,15.72
2019-04-23T05:31:34.159Z,15.79
2019-04-23T05:34:22.369Z,15.69
2019-04-23T05:36:45.694Z,15.78
2019-04-23T05:41:41.774Z,15.82
2019-04-23T05:46:45.932Z,15.89
2019-04-23T05:49:18.682Z,15.96
2019-04-23T05:54:22.609Z,15.99
2019-04-23T05:59:20.745Z,16.05
2019-04-23T06:04:24.809Z,16.05
2019-04-23T06:07:11.383Z,16.02
2019-04-23T06:12:13.563Z,16.14
2019-04-23T06:14:52.449Z,16.20
2019-04-23T06:17:21.551Z,16.12
2019-04-23T06:19:58.158Z,16.25
2019-04-23T06:22:30.157Z,16.20
2019-04-23T06:25:04.200Z,16.22
2019-04-23T06:27:27.421Z,16.40
2019-04-23T06:29:57.712Z,16.40
2019-04-23T06:32:25.825Z,16.40
2019-04-23T06:34:59.134Z,16.40
2019-04-23T06:37:38.324Z,16.30
2019-04-23T06:40:05.115Z,16.37
2019-04-23T06:45:22.082Z,16.62
2019-04-23T06:47:35.655Z,16.59
2019-04-23T06:50:30.156Z,16.62
2019-04-23T06:52:57.304Z,16.80
2019-04-23T06:55:31.848Z,16.84
2019-04-23T06:58:07.937Z,16.83
2019-04-23T07:01:09.559Z,16.93
2019-04-23T07:03:45.150Z,17.05
2019-04-23T07:09:07.839Z,17.23
2019-04-23T07:11:23.286Z,17.34
2019-04-23T07:13:54.604Z,17.38
2019-04-23T07:16:16.103Z,17.48
2019-04-23T07:18:46.973Z,17.49
2019-04-23T07:21:21.862Z,17.53
2019-04-23T07:29:00.452Z,17.48
2019-04-23T07:31:28.377Z,17.58
2019-04-23T07:36:34.241Z,17.75
2019-04-23T07:39:23.009Z,17.86
2019-04-23T07:47:54.387Z,17.97
2019-04-23T07:52:58.870Z,18.15
2019-04-23T07:55:27.003Z,18.20
2019-04-23T07:57:58.260Z,18.28
2019-04-23T08:02:58.281Z,18.55
2019-04-23T08:07:57.136Z,18.82
2019-04-23T08:10:29.746Z,18.91
2019-04-23T08:12:58.532Z,19.00
2019-04-23T08:16:20.245Z,19.27
2019-04-23T08:21:30.667Z,19.43
2019-04-23T08:24:29.527Z,19.56
2019-04-23T08:26:59.844Z,19.84
2019-04-23T08:29:41.087Z,20.10
2019-04-23T08:32:12.317Z,20.30
2019-04-23T08:34:58.719Z,20.55
2019-04-23T08:37:16.893Z,20.80
2019-04-23T08:45:10.723Z,21.27
2019-04-23T08:50:32.622Z,21.41
2019-04-23T08:53:15.003Z,21.45
2019-04-23T08:55:38.815Z,21.60
2019-04-23T08:58:06.183Z,21.80
2019-04-23T09:03:39.666Z,22.14
2019-04-23T09:06:16.041Z,22.32
2019-04-23T09:08:44.382Z,22.48
2019-04-23T09:19:10.593Z,22.42
2019-04-23T09:21:33.236Z,22.56
2019-04-23T09:24:03.951Z,22.70
2019-04-23T09:26:33.080Z,22.73
2019-04-23T09:29:10.421Z,22.77
2019-04-23T09:32:21.118Z,22.84
2019-04-23T09:34:58.656Z,22.80
2019-04-23T09:43:14.335Z,22.94
2019-04-23T09:48:45.615Z,23.06
2019-04-23T09:53:48.797Z,23.08
2019-04-23T09:56:14.534Z,23.00
2019-04-23T09:59:13.571Z,23.04
2019-04-23T10:01:29.154Z,23.17
2019-04-23T10:06:58.411Z,22.81
2019-04-23T10:09:14.568Z,22.67
2019-04-23T10:11:45.168Z,22.80
2019-04-23T10:14:16.688Z,22.99
2019-04-23T10:16:47.393Z,23.25
2019-04-23T10:19:17.261Z,23.56
2019-04-23T10:21:47.152Z,23.82
2019-04-23T10:24:19.111Z,23.94
2019-04-23T10:26:50.197Z,24.04
2019-04-23T10:31:59.702Z,23.62
2019-04-23T10:34:42.251Z,23.66
2019-04-23T10:37:01.933Z,23.58
2019-04-23T10:39:37.196Z,23.78
2019-04-23T10:42:03.412Z,23.76
2019-04-23T10:48:03.049Z,23.67
2019-04-23T10:53:32.880Z,23.59
2019-04-23T10:58:31.829Z,23.91
2019-04-23T11:01:08.742Z,23.87
2019-04-23T11:06:06.886Z,24.06
2019-04-23T11:08:36.938Z,24.20
2019-04-23T11:11:14.707Z,24.26
2019-04-23T11:16:49.253Z,23.53
2019-04-23T11:19:12.358Z,23.49
2019-04-23T11:21:34.364Z,23.59
2019-04-23T11:24:11.016Z,23.69
2019-04-23T11:29:15.063Z,23.66
2019-04-23T11:31:55.265Z,23.69
2019-04-23T11:38:17.111Z,23.86
2019-04-23T11:39:50.742Z,23.81
2019-04-23T11:42:19.378Z,23.87
2019-04-23T11:47:45.655Z,23.98
2019-04-23T11:49:55.253Z,23.83
2019-04-23T11:59:58.948Z,24.17
2019-04-23T12:02:51.595Z,24.34
2019-04-23T12:05:41.670Z,24.40
2019-04-23T12:11:36.125Z,24.36
2019-04-23T12:16:23.941Z,24.39
2019-04-23T12:18:51.453Z,24.52
2019-04-23T12:21:35.718Z,24.49
2019-04-23T12:24:00.727Z,24.44
2019-04-23T12:26:38.970Z,24.41
2019-04-23T12:28:57.794Z,24.37
2019-04-23T12:39:27.650Z,24.43
2019-04-23T12:41:51.093Z,24.59
2019-04-23T12:44:22.098Z,24.67
2019-04-23T12:47:05.415Z,24.70
2019-04-23T12:49:50.400Z,24.62
2019-04-23T12:52:02.393Z,24.38
2019-04-23T12:57:46.729Z,24.40
2019-04-23T13:00:23.302Z,24.47
2019-04-23T13:05:26.701Z,24.47
2019-04-23T13:08:15.789Z,24.45
2019-04-23T13:10:30.208Z,24.31
2019-04-23T13:15:48.008Z,24.21
2019-04-23T13:18:17.404Z,24.34
2019-04-23T13:20:46.788Z,24.55
2019-04-23T13:23:25.577Z,24.71
2019-04-23T13:26:17.793Z,24.84
2019-04-23T13:28:45.343Z,25.03
2019-04-23T13:31:12.652Z,25.10
2019-04-23T13:39:03.293Z,24.65
2019-04-23T13:48:47.226Z,24.98
2019-04-23T13:51:25.823Z,25.10
2019-04-23T13:54:17.004Z,25.12
2019-04-23T13:56:39.261Z,25.15
2019-04-23T14:04:56.090Z,24.73
2019-04-23T14:07:23.392Z,24.79
2019-04-23T14:20:55.426Z,24.42
2019-04-23T14:23:41.547Z,24.41
2019-04-23T14:28:44.910Z,24.36
2019-04-23T14:31:17.298Z,24.42
2019-04-23T14:36:30.473Z,24.60
2019-04-23T14:39:41.040Z,24.63
2019-04-23T14:42:20.960Z,24.42
2019-04-23T14:47:48.707Z,24.24
2019-04-23T15:00:53.072Z,24.33
2019-04-23T15:03:19.818Z,24.24
2019-04-23T15:05:56.153Z,24.08
2019-04-23T15:08:16.785Z,23.97
2019-04-23T15:10:55.551Z,23.98
2019-04-23T15:13:53.933Z,24.04
2019-04-23T15:22:20.158Z,24.48
2019-04-23T15:25:06.996Z,24.59
2019-04-23T15:29:47.577Z,24.93
2019-04-23T15:32:23.893Z,25.08
2019-04-23T15:35:05.162Z,25.15
2019-04-23T15:37:41.400Z,25.13
2019-04-23T15:40:04.322Z,25.17
2019-04-23T15:45:01.045Z,25.48
2019-04-23T15:47:35.981Z,25.36
2019-04-23T15:50:10.423Z,25.34
2019-04-23T15:52:44.353Z,25.43
2019-04-23T15:55:01.709Z,25.78
2019-04-23T15:57:55.642Z,25.86
2019-04-23T16:02:08.362Z,26.02
2019-04-23T16:04:38.017Z,26.09
2019-04-23T16:07:08.455Z,26.12
2019-04-23T16:12:50.780Z,25.71
2019-04-23T16:23:08.800Z,26.02
2019-04-23T16:25:43.621Z,26.09
2019-04-23T16:28:16.102Z,26.00
2019-04-23T16:30:37.908Z,25.98
2019-04-23T16:33:11.152Z,26.00
2019-04-23T16:36:21.807Z,25.96
2019-04-23T16:41:03.900Z,26.16
2019-04-23T16:43:38.305Z,26.18
2019-04-23T16:46:11.903Z,26.14
2019-04-23T16:51:18.106Z,26.32
2019-04-23T16:58:54.834Z,25.94
2019-04-23T17:01:12.386Z,25.91
2019-04-23T17:03:43.959Z,25.91
2019-04-23T17:06:15.808Z,25.86
2019-04-23T17:11:19.061Z,25.33
2019-04-23T17:16:28.480Z,24.55
2019-04-23T17:18:54.455Z,24.17
2019-04-23T17:21:23.274Z,23.92
2019-04-23T17:23:59.500Z,23.71
2019-04-23T17:26:26.014Z,23.55
2019-04-23T17:34:02.555Z,23.12
2019-04-23T17:36:45.857Z,22.99
2019-04-23T17:39:31.271Z,22.77
2019-04-23T17:42:24.418Z,22.54
2019-04-23T17:47:52.313Z,22.17
2019-04-23T17:50:21.375Z,22.03
2019-04-23T17:55:22.224Z,21.88
2019-04-23T17:57:55.817Z,21.84
2019-04-23T18:00:40.943Z,21.74
2019-04-23T18:03:08.902Z,21.73
2019-04-23T18:05:16.333Z,21.60
2019-04-23T18:12:57.956Z,21.35
2019-04-23T18:15:17.522Z,21.26
2019-04-23T18:18:01.918Z,21.27
2019-04-23T18:20:58.357Z,21.20
2019-04-23T18:28:37.615Z,20.93
2019-04-23T18:31:31.378Z,20.82
2019-04-23T18:34:13.985Z,20.66
2019-04-23T18:36:46.592Z,20.55
2019-04-23T18:39:22.657Z,20.42
2019-04-23T18:42:04.201Z,20.38
2019-04-23T18:44:33.200Z,20.43
2019-04-23T18:46:49.075Z,20.48
2019-04-23T18:49:28.196Z,20.55
2019-04-23T18:52:20.918Z,20.49
2019-04-23T18:54:28.107Z,20.49
2019-04-23T18:57:34.458Z,20.46
2019-04-23T18:59:37.201Z,20.46
2019-04-23T19:02:24.071Z,20.38
2019-04-23T19:10:30.627Z,20.27
2019-04-23T19:13:21.809Z,20.27
2019-04-23T19:18:45.147Z,20.15
2019-04-23T19:21:20.806Z,20.04
2019-04-23T19:23:47.675Z,19.97
2019-04-23T19:26:22.601Z,19.83
2019-04-23T19:31:46.038Z,19.65
2019-04-23T19:34:24.827Z,19.61
2019-04-23T19:40:26.335Z,19.59
2019-04-23T19:42:52.233Z,19.42
2019-04-23T19:45:21.362Z,19.45
2019-04-23T19:48:11.052Z,19.52
2019-04-23T19:50:30.274Z,19.55
2019-04-23T19:55:24.314Z,19.44
2019-04-23T19:58:03.920Z,19.46
2019-04-23T20:03:37.884Z,19.34
2019-04-23T20:05:49.975Z,19.32
2019-04-23T20:08:29.306Z,19.31
2019-04-23T20:10:47.683Z,19.18
2019-04-23T20:13:33.104Z,19.15
2019-04-23T20:16:05.389Z,19.02
2019-04-23T20:18:34.032Z,18.96
2019-04-23T20:20:55.089Z,18.89
2019-04-23T20:23:52.584Z,18.91
2019-04-23T20:34:22.639Z,18.58
2019-04-23T20:36:46.256Z,18.43
2019-04-23T20:42:10.877Z,18.13
2019-04-23T20:49:42.750Z,17.96
2019-04-23T20:55:40.843Z,17.80
2019-04-23T20:57:40.005Z,17.73
2019-04-23T21:06:18.876Z,17.73
2019-04-23T21:09:17.442Z,17.68
2019-04-23T21:11:16.485Z,17.70
2019-04-23T21:14:22.830Z,17.63
2019-04-23T21:16:41.110Z,17.63
2019-04-23T21:19:11.926Z,17.66
2019-04-23T21:22:06.092Z,17.67
2019-04-23T21:24:37.620Z,17.69
2019-04-23T21:30:16.357Z,17.86
2019-04-23T21:32:41.003Z,17.85
2019-04-23T21:37:53.775Z,17.94
2019-04-23T21:43:32.873Z,18.05
2019-04-23T21:45:53.032Z,18.06
2019-04-23T21:48:18.848Z,18.09
2019-04-23T21:53:53.855Z,18.05
2019-04-23T21:59:05.937Z,17.92
2019-04-23T22:06:47.765Z,17.80
2019-04-23T22:09:32.269Z,17.82
2019-04-23T22:12:15.052Z,17.74
2019-04-23T22:14:51.996Z,17.74
2019-04-23T22:25:22.095Z,17.74
2019-04-23T22:27:55.056Z,17.62
2019-04-23T22:30:33.337Z,17.54
2019-04-23T22:33:02.886Z,17.57
2019-04-23T22:35:35.119Z,17.59
2019-04-23T22:43:53.054Z,17.60
2019-04-23T22:46:26.088Z,17.57
2019-04-23T22:48:57.239Z,17.49
2019-04-23T22:53:59.508Z,17.45
2019-04-23T22:56:25.955Z,17.46
2019-04-23T22:59:18.259Z,17.47
2019-04-23T23:09:26.290Z,17.43
2019-04-23T23:14:27.997Z,17.34
2019-04-23T23:16:56.991Z,17.35
2019-04-23T23:19:50.993Z,17.39
2019-04-23T23:24:28.649Z,17.35
2019-04-23T23:27:09.822Z,17.33
2019-04-23T23:29:42.479Z,17.32
2019-04-23T23:32:07.908Z,17.27
2019-04-23T23:34:48.329Z,17.28
2019-04-23T23:37:07.514Z,17.29
2019-04-23T23:43:00.224Z,17.18
2019-04-23T23:45:36.784Z,17.14
2019-04-23T23:47:56.068Z,17.15
2019-04-23T23:55:19.575Z,17.16
